sensor_id;sensor_type;location;lat;lon;timestamp;P1;durP1;ratioP1;P2;durP2;ratioP2
70148;SDS011;57514;52.164;5.282;2023-06-24T00:02:22;10.95;;;5.47;;
70148;SDS011;57514;52.164;5.282;2023-06-24T00:04:50;9.90;;;5.07;;
70148;SDS011;57514;52.164;5.282;2023-06-24T00:07:18;11.05;;;5.72;;
70148;SDS011;57514;52.164;5.282;2023-06-24T00:09:49;11.07;;;5.57;;
70148;SDS011;57514;52.164;5.282;2023-06-24T00:12:16;11.13;;;5.75;;
70148;SDS011;57514;52.164;5.282;2023-06-24T00:14:49;10.68;;;5.65;;
70148;SDS011;57514;52.164;5.282;2023-06-24T00:17:17;10.88;;;5.97;;
70148;SDS011;57514;52.164;5.282;2023-06-24T00:19:44;12.27;;;5.75;;
70148;SDS011;57514;52.164;5.282;2023-06-24T00:22:12;10.63;;;5.30;;
70148;SDS011;57514;52.164;5.282;2023-06-24T00:24:41;12.75;;;6.05;;
70148;SDS011;57514;52.164;5.282;2023-06-24T00:27:09;11.48;;;5.55;;
70148;SDS011;57514;52.164;5.282;2023-06-24T00:29:37;10.45;;;5.35;;
70148;SDS011;57514;52.164;5.282;2023-06-24T00:32:04;12.43;;;6.57;;
70148;SDS011;57514;52.164;5.282;2023-06-24T00:34:32;12.43;;;6.28;;
70148;SDS011;57514;52.164;5.282;2023-06-24T00:36:59;10.23;;;5.70;;
70148;SDS011;57514;52.164;5.282;2023-06-24T00:39:29;12.70;;;6.38;;
70148;SDS011;57514;52.164;5.282;2023-06-24T00:41:58;12.82;;;6.10;;
70148;SDS011;57514;52.164;5.282;2023-06-24T00:44:25;13.73;;;6.28;;
70148;SDS011;57514;52.164;5.282;2023-06-24T00:46:53;11.70;;;6.05;;
70148;SDS011;57514;52.164;5.282;2023-06-24T00:49:21;11.80;;;6.10;;
70148;SDS011;57514;52.164;5.282;2023-06-24T00:51:48;12.15;;;6.30;;
70148;SDS011;57514;52.164;5.282;2023-06-24T00:54:17;12.05;;;6.35;;
70148;SDS011;57514;52.164;5.282;2023-06-24T00:56:45;12.43;;;6.78;;
70148;SDS011;57514;52.164;5.282;2023-06-24T00:59:14;12.45;;;6.35;;
70148;SDS011;57514;52.164;5.282;2023-06-24T01:01:42;16.38;;;5.97;;
70148;SDS011;57514;52.164;5.282;2023-06-24T01:04:11;12.18;;;6.00;;
70148;SDS011;57514;52.164;5.282;2023-06-24T01:06:39;10.50;;;5.13;;
70148;SDS011;57514;52.164;5.282;2023-06-24T01:09:10;11.52;;;6.18;;
70148;SDS011;57514;52.164;5.282;2023-06-24T01:11:38;11.00;;;5.72;;
70148;SDS011;57514;52.164;5.282;2023-06-24T01:14:06;11.88;;;6.22;;
70148;SDS011;57514;52.164;5.282;2023-06-24T01:16:37;13.13;;;6.38;;
70148;SDS011;57514;52.164;5.282;2023-06-24T01:19:23;10.68;;;5.03;;
70148;SDS011;57514;52.164;5.282;2023-06-24T01:25:28;12.02;;;5.40;;
70148;SDS011;57514;52.164;5.282;2023-06-24T01:28:30;12.30;;;6.88;;
70148;SDS011;57514;52.164;5.282;2023-06-24T01:36:38;12.90;;;6.72;;
70148;SDS011;57514;52.164;5.282;2023-06-24T01:39:10;13.00;;;6.72;;
70148;SDS011;57514;52.164;5.282;2023-06-24T01:41:45;12.52;;;6.32;;
70148;SDS011;57514;52.164;5.282;2023-06-24T01:44:17;13.25;;;6.80;;
70148;SDS011;57514;52.164;5.282;2023-06-24T01:46:46;11.93;;;6.35;;
70148;SDS011;57514;52.164;5.282;2023-06-24T01:49:16;12.98;;;6.75;;
70148;SDS011;57514;52.164;5.282;2023-06-24T01:51:45;13.45;;;7.10;;
70148;SDS011;57514;52.164;5.282;2023-06-24T01:54:15;12.07;;;6.35;;
70148;SDS011;57514;52.164;5.282;2023-06-24T01:56:51;11.13;;;6.65;;
70148;SDS011;57514;52.164;5.282;2023-06-24T01:59:22;11.82;;;6.18;;
70148;SDS011;57514;52.164;5.282;2023-06-24T02:01:50;13.60;;;6.88;;
70148;SDS011;57514;52.164;5.282;2023-06-24T02:04:18;12.43;;;6.32;;
70148;SDS011;57514;52.164;5.282;2023-06-24T02:06:46;13.60;;;6.78;;
70148;SDS011;57514;52.164;5.282;2023-06-24T02:09:16;12.63;;;6.70;;
70148;SDS011;57514;52.164;5.282;2023-06-24T02:11:46;11.02;;;6.30;;
70148;SDS011;57514;52.164;5.282;2023-06-24T02:14:14;13.65;;;5.68;;
70148;SDS011;57514;52.164;5.282;2023-06-24T02:16:43;13.70;;;6.05;;
70148;SDS011;57514;52.164;5.282;2023-06-24T02:19:15;12.38;;;6.75;;
70148;SDS011;57514;52.164;5.282;2023-06-24T02:21:44;12.88;;;5.88;;
70148;SDS011;57514;52.164;5.282;2023-06-24T02:24:12;14.05;;;6.90;;
70148;SDS011;57514;52.164;5.282;2023-06-24T02:26:40;11.35;;;6.38;;
70148;SDS011;57514;52.164;5.282;2023-06-24T02:29:08;12.80;;;6.85;;
70148;SDS011;57514;52.164;5.282;2023-06-24T02:31:38;12.15;;;6.00;;
70148;SDS011;57514;52.164;5.282;2023-06-24T02:34:06;13.43;;;6.00;;
70148;SDS011;57514;52.164;5.282;2023-06-24T02:36:35;10.82;;;5.95;;
70148;SDS011;57514;52.164;5.282;2023-06-24T02:39:02;13.43;;;6.70;;
70148;SDS011;57514;52.164;5.282;2023-06-24T02:41:30;12.65;;;6.28;;
70148;SDS011;57514;52.164;5.282;2023-06-24T02:44:00;13.68;;;6.45;;
70148;SDS011;57514;52.164;5.282;2023-06-24T02:46:28;12.00;;;6.38;;
70148;SDS011;57514;52.164;5.282;2023-06-24T02:48:57;10.98;;;5.43;;
70148;SDS011;57514;52.164;5.282;2023-06-24T02:51:25;11.75;;;6.35;;
70148;SDS011;57514;52.164;5.282;2023-06-24T02:53:53;13.07;;;6.55;;
70148;SDS011;57514;52.164;5.282;2023-06-24T02:56:32;12.07;;;5.95;;
70148;SDS011;57514;52.164;5.282;2023-06-24T02:59:01;11.68;;;5.70;;
70148;SDS011;57514;52.164;5.282;2023-06-24T03:01:28;12.05;;;5.43;;
70148;SDS011;57514;52.164;5.282;2023-06-24T03:03:58;11.52;;;6.53;;
70148;SDS011;57514;52.164;5.282;2023-06-24T03:06:25;12.05;;;5.68;;
70148;SDS011;57514;52.164;5.282;2023-06-24T03:08:58;10.60;;;6.32;;
70148;SDS011;57514;52.164;5.282;2023-06-24T03:11:28;14.82;;;5.68;;
70148;SDS011;57514;52.164;5.282;2023-06-24T03:13:57;12.57;;;6.70;;
70148;SDS011;57514;52.164;5.282;2023-06-24T03:16:33;11.73;;;6.47;;
70148;SDS011;57514;52.164;5.282;2023-06-24T03:19:11;12.27;;;5.75;;
70148;SDS011;57514;52.164;5.282;2023-06-24T03:21:38;14.15;;;7.53;;
70148;SDS011;57514;52.164;5.282;2023-06-24T03:24:10;12.15;;;6.85;;
70148;SDS011;57514;52.164;5.282;2023-06-24T03:26:39;13.57;;;7.18;;
70148;SDS011;57514;52.164;5.282;2023-06-24T03:29:09;13.07;;;6.95;;
70148;SDS011;57514;52.164;5.282;2023-06-24T03:31:42;16.90;;;7.28;;
70148;SDS011;57514;52.164;5.282;2023-06-24T03:34:13;13.43;;;6.45;;
70148;SDS011;57514;52.164;5.282;2023-06-24T03:36:43;11.10;;;6.32;;
70148;SDS011;57514;52.164;5.282;2023-06-24T03:39:12;13.25;;;6.97;;
70148;SDS011;57514;52.164;5.282;2023-06-24T03:41:40;12.98;;;5.47;;
70148;SDS011;57514;52.164;5.282;2023-06-24T03:44:07;12.70;;;7.05;;
70148;SDS011;57514;52.164;5.282;2023-06-24T03:46:42;12.95;;;6.82;;
70148;SDS011;57514;52.164;5.282;2023-06-24T03:49:11;13.15;;;6.50;;
70148;SDS011;57514;52.164;5.282;2023-06-24T03:51:38;13.05;;;6.72;;
70148;SDS011;57514;52.164;5.282;2023-06-24T03:54:05;14.20;;;6.63;;
70148;SDS011;57514;52.164;5.282;2023-06-24T03:56:33;13.40;;;6.90;;
70148;SDS011;57514;52.164;5.282;2023-06-24T03:59:00;11.77;;;6.70;;
70148;SDS011;57514;52.164;5.282;2023-06-24T04:01:31;14.98;;;7.00;;
70148;SDS011;57514;52.164;5.282;2023-06-24T04:04:01;14.48;;;7.43;;
70148;SDS011;57514;52.164;5.282;2023-06-24T04:06:28;12.77;;;6.70;;
70148;SDS011;57514;52.164;5.282;2023-06-24T04:08:58;13.82;;;7.20;;
70148;SDS011;57514;52.164;5.282;2023-06-24T04:11:25;13.60;;;6.78;;
70148;SDS011;57514;52.164;5.282;2023-06-24T04:13:53;13.18;;;6.85;;
70148;SDS011;57514;52.164;5.282;2023-06-24T04:16:20;14.48;;;7.15;;
70148;SDS011;57514;52.164;5.282;2023-06-24T04:18:47;15.07;;;7.53;;
70148;SDS011;57514;52.164;5.282;2023-06-24T04:21:15;13.57;;;7.35;;
70148;SDS011;57514;52.164;5.282;2023-06-24T04:23:42;14.05;;;6.75;;
70148;SDS011;57514;52.164;5.282;2023-06-24T04:26:19;13.65;;;6.68;;
70148;SDS011;57514;52.164;5.282;2023-06-24T04:28:46;12.50;;;7.00;;
70148;SDS011;57514;52.164;5.282;2023-06-24T04:31:14;12.40;;;6.80;;
70148;SDS011;57514;52.164;5.282;2023-06-24T04:33:41;15.75;;;7.57;;
70148;SDS011;57514;52.164;5.282;2023-06-24T04:36:08;12.63;;;6.68;;
70148;SDS011;57514;52.164;5.282;2023-06-24T04:38:36;12.90;;;6.18;;
70148;SDS011;57514;52.164;5.282;2023-06-24T04:41:03;13.05;;;5.85;;
70148;SDS011;57514;52.164;5.282;2023-06-24T04:43:31;12.00;;;6.47;;
70148;SDS011;57514;52.164;5.282;2023-06-24T04:45:58;12.00;;;6.47;;
70148;SDS011;57514;52.164;5.282;2023-06-24T04:48:26;13.43;;;6.55;;
70148;SDS011;57514;52.164;5.282;2023-06-24T04:50:53;12.25;;;6.10;;
70148;SDS011;57514;52.164;5.282;2023-06-24T04:53:22;10.60;;;5.70;;
70148;SDS011;57514;52.164;5.282;2023-06-24T04:55:49;11.32;;;6.28;;
70148;SDS011;57514;52.164;5.282;2023-06-24T04:58:17;11.73;;;5.88;;
70148;SDS011;57514;52.164;5.282;2023-06-24T05:00:44;13.18;;;5.65;;
70148;SDS011;57514;52.164;5.282;2023-06-24T05:03:11;12.48;;;6.78;;
70148;SDS011;57514;52.164;5.282;2023-06-24T05:05:39;13.43;;;6.10;;
70148;SDS011;57514;52.164;5.282;2023-06-24T05:08:07;11.63;;;5.72;;
70148;SDS011;57514;52.164;5.282;2023-06-24T05:10:35;13.32;;;6.75;;
70148;SDS011;57514;52.164;5.282;2023-06-24T05:13:02;12.23;;;5.90;;
70148;SDS011;57514;52.164;5.282;2023-06-24T05:15:29;11.02;;;6.03;;
70148;SDS011;57514;52.164;5.282;2023-06-24T05:17:57;12.50;;;6.47;;
70148;SDS011;57514;52.164;5.282;2023-06-24T05:20:24;12.95;;;5.47;;
70148;SDS011;57514;52.164;5.282;2023-06-24T05:22:52;11.45;;;5.97;;
70148;SDS011;57514;52.164;5.282;2023-06-24T05:25:21;11.20;;;5.32;;
70148;SDS011;57514;52.164;5.282;2023-06-24T05:27:49;12.15;;;6.15;;
70148;SDS011;57514;52.164;5.282;2023-06-24T05:30:17;12.73;;;5.38;;
70148;SDS011;57514;52.164;5.282;2023-06-24T05:32:44;12.00;;;5.82;;
70148;SDS011;57514;52.164;5.282;2023-06-24T05:35:12;10.73;;;6.50;;
70148;SDS011;57514;52.164;5.282;2023-06-24T05:37:39;10.27;;;5.57;;
70148;SDS011;57514;52.164;5.282;2023-06-24T05:40:06;12.05;;;6.00;;
70148;SDS011;57514;52.164;5.282;2023-06-24T05:42:37;9.88;;;5.32;;
70148;SDS011;57514;52.164;5.282;2023-06-24T05:45:04;10.55;;;5.70;;
70148;SDS011;57514;52.164;5.282;2023-06-24T05:47:35;10.90;;;4.90;;
70148;SDS011;57514;52.164;5.282;2023-06-24T05:50:03;10.32;;;5.45;;
70148;SDS011;57514;52.164;5.282;2023-06-24T05:52:30;10.45;;;5.50;;
70148;SDS011;57514;52.164;5.282;2023-06-24T05:55:06;10.32;;;5.03;;
70148;SDS011;57514;52.164;5.282;2023-06-24T05:57:33;10.05;;;5.20;;
70148;SDS011;57514;52.164;5.282;2023-06-24T06:00:01;11.45;;;4.95;;
70148;SDS011;57514;52.164;5.282;2023-06-24T06:02:37;10.15;;;4.55;;
70148;SDS011;57514;52.164;5.282;2023-06-24T06:05:05;9.88;;;4.50;;
70148;SDS011;57514;52.164;5.282;2023-06-24T06:07:32;8.82;;;4.20;;
70148;SDS011;57514;52.164;5.282;2023-06-24T06:09:59;9.43;;;4.60;;
70148;SDS011;57514;52.164;5.282;2023-06-24T06:12:27;8.93;;;4.35;;
70148;SDS011;57514;52.164;5.282;2023-06-24T06:14:54;10.00;;;5.28;;
70148;SDS011;57514;52.164;5.282;2023-06-24T06:17:21;9.48;;;4.13;;
70148;SDS011;57514;52.164;5.282;2023-06-24T06:19:48;10.25;;;4.35;;
70148;SDS011;57514;52.164;5.282;2023-06-24T06:22:17;8.60;;;4.35;;
70148;SDS011;57514;52.164;5.282;2023-06-24T06:24:45;8.18;;;4.30;;
70148;SDS011;57514;52.164;5.282;2023-06-24T06:27:12;9.20;;;4.07;;
70148;SDS011;57514;52.164;5.282;2023-06-24T06:29:40;8.48;;;3.70;;
70148;SDS011;57514;52.164;5.282;2023-06-24T06:32:07;9.13;;;4.03;;
70148;SDS011;57514;52.164;5.282;2023-06-24T06:34:34;8.05;;;4.03;;
70148;SDS011;57514;52.164;5.282;2023-06-24T06:37:01;10.60;;;4.13;;
70148;SDS011;57514;52.164;5.282;2023-06-24T06:39:28;8.68;;;3.80;;
70148;SDS011;57514;52.164;5.282;2023-06-24T06:41:55;8.82;;;4.05;;
70148;SDS011;57514;52.164;5.282;2023-06-24T06:44:23;8.10;;;3.72;;
70148;SDS011;57514;52.164;5.282;2023-06-24T06:46:56;7.40;;;3.45;;
70148;SDS011;57514;52.164;5.282;2023-06-24T06:49:26;10.27;;;3.90;;
70148;SDS011;57514;52.164;5.282;2023-06-24T06:51:53;8.40;;;4.00;;
70148;SDS011;57514;52.164;5.282;2023-06-24T06:54:21;8.23;;;4.05;;
70148;SDS011;57514;52.164;5.282;2023-06-24T06:56:49;9.60;;;4.10;;
70148;SDS011;57514;52.164;5.282;2023-06-24T06:59:16;9.45;;;4.32;;
70148;SDS011;57514;52.164;5.282;2023-06-24T07:01:45;8.52;;;3.92;;
70148;SDS011;57514;52.164;5.282;2023-06-24T07:04:13;8.88;;;3.90;;
70148;SDS011;57514;52.164;5.282;2023-06-24T07:06:40;8.52;;;3.75;;
70148;SDS011;57514;52.164;5.282;2023-06-24T07:09:07;6.78;;;3.42;;
70148;SDS011;57514;52.164;5.282;2023-06-24T07:11:34;8.15;;;3.70;;
70148;SDS011;57514;52.164;5.282;2023-06-24T07:14:02;8.13;;;3.35;;
70148;SDS011;57514;52.164;5.282;2023-06-24T07:16:29;8.07;;;3.78;;
70148;SDS011;57514;52.164;5.282;2023-06-24T07:18:57;8.20;;;3.40;;
70148;SDS011;57514;52.164;5.282;2023-06-24T07:21:25;8.93;;;3.08;;
70148;SDS011;57514;52.164;5.282;2023-06-24T07:23:52;7.68;;;3.85;;
70148;SDS011;57514;52.164;5.282;2023-06-24T07:26:22;7.68;;;3.53;;
70148;SDS011;57514;52.164;5.282;2023-06-24T07:28:49;7.20;;;3.92;;
70148;SDS011;57514;52.164;5.282;2023-06-24T07:31:33;7.65;;;3.30;;
70148;SDS011;57514;52.164;5.282;2023-06-24T07:34:01;7.13;;;3.22;;
70148;SDS011;57514;52.164;5.282;2023-06-24T07:36:31;7.50;;;3.38;;
70148;SDS011;57514;52.164;5.282;2023-06-24T07:38:58;7.88;;;3.63;;
70148;SDS011;57514;52.164;5.282;2023-06-24T07:41:27;7.63;;;3.20;;
70148;SDS011;57514;52.164;5.282;2023-06-24T07:43:54;10.75;;;3.42;;
70148;SDS011;57514;52.164;5.282;2023-06-24T07:46:21;7.63;;;3.45;;
70148;SDS011;57514;52.164;5.282;2023-06-24T07:48:49;7.38;;;3.55;;
70148;SDS011;57514;52.164;5.282;2023-06-24T07:51:16;9.27;;;3.60;;
70148;SDS011;57514;52.164;5.282;2023-06-24T07:53:45;7.15;;;3.53;;
70148;SDS011;57514;52.164;5.282;2023-06-24T07:56:13;7.47;;;3.63;;
70148;SDS011;57514;52.164;5.282;2023-06-24T07:58:40;8.48;;;3.40;;
70148;SDS011;57514;52.164;5.282;2023-06-24T08:01:07;6.38;;;3.33;;
70148;SDS011;57514;52.164;5.282;2023-06-24T08:03:34;7.43;;;3.45;;
70148;SDS011;57514;52.164;5.282;2023-06-24T08:06:03;8.45;;;3.72;;
70148;SDS011;57514;52.164;5.282;2023-06-24T08:08:30;6.72;;;3.47;;
70148;SDS011;57514;52.164;5.282;2023-06-24T08:11:01;8.43;;;3.30;;
70148;SDS011;57514;52.164;5.282;2023-06-24T08:13:29;7.03;;;3.38;;
70148;SDS011;57514;52.164;5.282;2023-06-24T08:15:59;6.72;;;3.20;;
70148;SDS011;57514;52.164;5.282;2023-06-24T08:18:27;8.68;;;3.80;;
70148;SDS011;57514;52.164;5.282;2023-06-24T08:20:54;7.85;;;3.35;;
70148;SDS011;57514;52.164;5.282;2023-06-24T08:23:24;8.77;;;3.85;;
70148;SDS011;57514;52.164;5.282;2023-06-24T08:25:51;8.90;;;4.07;;
70148;SDS011;57514;52.164;5.282;2023-06-24T08:28:33;7.47;;;3.75;;
70148;SDS011;57514;52.164;5.282;2023-06-24T08:31:01;9.18;;;4.03;;
70148;SDS011;57514;52.164;5.282;2023-06-24T08:33:28;8.05;;;3.65;;
70148;SDS011;57514;52.164;5.282;2023-06-24T08:35:55;8.57;;;3.78;;
70148;SDS011;57514;52.164;5.282;2023-06-24T08:38:25;8.45;;;3.60;;
70148;SDS011;57514;52.164;5.282;2023-06-24T08:40:52;7.07;;;3.22;;
70148;SDS011;57514;52.164;5.282;2023-06-24T08:43:19;6.85;;;3.67;;
70148;SDS011;57514;52.164;5.282;2023-06-24T08:52:35;8.75;;;3.70;;
70148;SDS011;57514;52.164;5.282;2023-06-24T08:55:04;7.35;;;3.15;;
70148;SDS011;57514;52.164;5.282;2023-06-24T08:57:54;8.25;;;4.35;;
70148;SDS011;57514;52.164;5.282;2023-06-24T09:00:21;7.65;;;3.80;;
70148;SDS011;57514;52.164;5.282;2023-06-24T09:02:55;7.25;;;3.85;;
70148;SDS011;57514;52.164;5.282;2023-06-24T09:05:22;9.40;;;4.07;;
70148;SDS011;57514;52.164;5.282;2023-06-24T09:07:56;8.07;;;3.92;;
70148;SDS011;57514;52.164;5.282;2023-06-24T09:10:33;8.77;;;4.43;;
70148;SDS011;57514;52.164;5.282;2023-06-24T09:13:02;9.90;;;4.05;;
70148;SDS011;57514;52.164;5.282;2023-06-24T09:18:31;8.18;;;3.60;;
70148;SDS011;57514;52.164;5.282;2023-06-24T09:20:59;8.20;;;4.05;;
70148;SDS011;57514;52.164;5.282;2023-06-24T09:23:28;10.93;;;4.30;;
70148;SDS011;57514;52.164;5.282;2023-06-24T09:25:56;8.98;;;4.18;;
70148;SDS011;57514;52.164;5.282;2023-06-24T09:28:27;8.32;;;4.30;;
70148;SDS011;57514;52.164;5.282;2023-06-24T09:34:21;8.18;;;4.00;;
70148;SDS011;57514;52.164;5.282;2023-06-24T09:37:02;9.18;;;4.18;;
70148;SDS011;57514;52.164;5.282;2023-06-24T09:39:34;9.35;;;4.07;;
70148;SDS011;57514;52.164;5.282;2023-06-24T09:42:06;9.88;;;5.15;;
70148;SDS011;57514;52.164;5.282;2023-06-24T09:44:36;8.60;;;4.63;;
70148;SDS011;57514;52.164;5.282;2023-06-24T09:47:03;9.05;;;4.32;;
70148;SDS011;57514;52.164;5.282;2023-06-24T09:49:30;8.85;;;4.28;;
70148;SDS011;57514;52.164;5.282;2023-06-24T09:51:58;9.20;;;4.22;;
70148;SDS011;57514;52.164;5.282;2023-06-24T09:54:28;8.90;;;4.47;;
70148;SDS011;57514;52.164;5.282;2023-06-24T09:57:01;9.32;;;4.45;;
70148;SDS011;57514;52.164;5.282;2023-06-24T09:59:32;8.93;;;4.95;;
70148;SDS011;57514;52.164;5.282;2023-06-24T10:02:00;8.95;;;4.25;;
70148;SDS011;57514;52.164;5.282;2023-06-24T10:07:00;10.30;;;5.40;;
70148;SDS011;57514;52.164;5.282;2023-06-24T10:09:28;9.32;;;4.85;;
70148;SDS011;57514;52.164;5.282;2023-06-24T10:12:03;9.25;;;4.50;;
70148;SDS011;57514;52.164;5.282;2023-06-24T10:14:30;8.10;;;4.28;;
70148;SDS011;57514;52.164;5.282;2023-06-24T10:17:01;8.18;;;4.30;;
70148;SDS011;57514;52.164;5.282;2023-06-24T10:19:29;9.00;;;4.22;;
70148;SDS011;57514;52.164;5.282;2023-06-24T10:21:58;8.25;;;4.70;;
70148;SDS011;57514;52.164;5.282;2023-06-24T10:24:29;8.32;;;4.53;;
70148;SDS011;57514;52.164;5.282;2023-06-24T10:29:36;7.82;;;4.07;;
70148;SDS011;57514;52.164;5.282;2023-06-24T10:32:04;12.88;;;5.38;;
70148;SDS011;57514;52.164;5.282;2023-06-24T10:34:38;8.48;;;4.50;;
70148;SDS011;57514;52.164;5.282;2023-06-24T10:37:11;10.70;;;4.07;;
70148;SDS011;57514;52.164;5.282;2023-06-24T10:39:54;7.80;;;4.03;;
70148;SDS011;57514;52.164;5.282;2023-06-24T10:45:14;11.38;;;4.63;;
70148;SDS011;57514;52.164;5.282;2023-06-24T10:47:46;8.68;;;4.00;;
70148;SDS011;57514;52.164;5.282;2023-06-24T10:50:20;10.57;;;4.88;;
70148;SDS011;57514;52.164;5.282;2023-06-24T10:52:56;9.32;;;4.63;;
70148;SDS011;57514;52.164;5.282;2023-06-24T10:55:25;8.23;;;4.05;;
70148;SDS011;57514;52.164;5.282;2023-06-24T10:57:53;8.55;;;4.20;;
70148;SDS011;57514;52.164;5.282;2023-06-24T11:00:22;10.45;;;4.82;;
70148;SDS011;57514;52.164;5.282;2023-06-24T11:02:50;9.65;;;4.72;;
70148;SDS011;57514;52.164;5.282;2023-06-24T11:05:25;9.40;;;4.80;;
70148;SDS011;57514;52.164;5.282;2023-06-24T11:10:51;10.70;;;5.75;;
70148;SDS011;57514;52.164;5.282;2023-06-24T11:13:20;9.20;;;4.78;;
70148;SDS011;57514;52.164;5.282;2023-06-24T11:15:55;10.52;;;5.20;;
70148;SDS011;57514;52.164;5.282;2023-06-24T11:18:26;9.75;;;5.30;;
70148;SDS011;57514;52.164;5.282;2023-06-24T11:20:53;7.82;;;4.47;;
70148;SDS011;57514;52.164;5.282;2023-06-24T11:23:21;9.23;;;4.88;;
70148;SDS011;57514;52.164;5.282;2023-06-24T11:25:48;12.13;;;5.18;;
70148;SDS011;57514;52.164;5.282;2023-06-24T11:28:19;9.82;;;4.93;;
70148;SDS011;57514;52.164;5.282;2023-06-24T11:30:50;10.95;;;5.13;;
70148;SDS011;57514;52.164;5.282;2023-06-24T11:36:21;11.45;;;5.82;;
70148;SDS011;57514;52.164;5.282;2023-06-24T11:38:54;10.82;;;5.22;;
70148;SDS011;57514;52.164;5.282;2023-06-24T11:41:26;8.93;;;4.65;;
70148;SDS011;57514;52.164;5.282;2023-06-24T11:43:54;10.88;;;4.60;;
70148;SDS011;57514;52.164;5.282;2023-06-24T11:46:24;10.10;;;5.78;;
70148;SDS011;57514;52.164;5.282;2023-06-24T11:55:21;9.80;;;5.45;;
70148;SDS011;57514;52.164;5.282;2023-06-24T11:58:03;12.05;;;5.97;;
70148;SDS011;57514;52.164;5.282;2023-06-24T12:00:38;10.10;;;4.85;;
70148;SDS011;57514;52.164;5.282;2023-06-24T12:03:11;11.88;;;5.40;;
70148;SDS011;57514;52.164;5.282;2023-06-24T12:08:36;10.75;;;5.20;;
70148;SDS011;57514;52.164;5.282;2023-06-24T12:11:17;9.57;;;4.47;;
70148;SDS011;57514;52.164;5.282;2023-06-24T12:13:44;9.20;;;5.03;;
70148;SDS011;57514;52.164;5.282;2023-06-24T12:16:25;10.48;;;5.28;;
70148;SDS011;57514;52.164;5.282;2023-06-24T12:18:54;10.63;;;4.75;;
70148;SDS011;57514;52.164;5.282;2023-06-24T12:24:46;10.48;;;5.13;;
70148;SDS011;57514;52.164;5.282;2023-06-24T12:27:21;9.80;;;5.25;;
70148;SDS011;57514;52.164;5.282;2023-06-24T12:29:48;8.88;;;4.10;;
70148;SDS011;57514;52.164;5.282;2023-06-24T12:32:16;9.30;;;4.57;;
70148;SDS011;57514;52.164;5.282;2023-06-24T12:34:43;9.48;;;4.43;;
70148;SDS011;57514;52.164;5.282;2023-06-24T12:37:09;10.68;;;4.70;;
70148;SDS011;57514;52.164;5.282;2023-06-24T12:39:49;8.73;;;4.53;;
70148;SDS011;57514;52.164;5.282;2023-06-24T12:42:20;10.30;;;4.65;;
70148;SDS011;57514;52.164;5.282;2023-06-24T12:44:47;8.98;;;4.28;;
70148;SDS011;57514;52.164;5.282;2023-06-24T12:47:18;8.77;;;4.20;;
70148;SDS011;57514;52.164;5.282;2023-06-24T12:49:46;8.82;;;4.32;;
70148;SDS011;57514;52.164;5.282;2023-06-24T12:52:13;8.32;;;4.00;;
70148;SDS011;57514;52.164;5.282;2023-06-24T12:54:40;9.63;;;3.90;;
70148;SDS011;57514;52.164;5.282;2023-06-24T12:57:07;10.90;;;4.20;;
70148;SDS011;57514;52.164;5.282;2023-06-24T12:59:40;9.13;;;4.53;;
70148;SDS011;57514;52.164;5.282;2023-06-24T13:02:12;8.82;;;4.20;;
70148;SDS011;57514;52.164;5.282;2023-06-24T13:04:40;8.00;;;3.92;;
70148;SDS011;57514;52.164;5.282;2023-06-24T13:07:08;8.43;;;3.90;;
70148;SDS011;57514;52.164;5.282;2023-06-24T13:09:36;8.38;;;4.68;;
70148;SDS011;57514;52.164;5.282;2023-06-24T13:12:04;9.07;;;4.25;;
70148;SDS011;57514;52.164;5.282;2023-06-24T13:14:31;7.55;;;3.90;;
70148;SDS011;57514;52.164;5.282;2023-06-24T13:17:01;8.38;;;4.13;;
70148;SDS011;57514;52.164;5.282;2023-06-24T13:19:29;8.00;;;4.10;;
70148;SDS011;57514;52.164;5.282;2023-06-24T13:21:58;8.52;;;4.25;;
70148;SDS011;57514;52.164;5.282;2023-06-24T13:24:26;8.65;;;4.22;;
70148;SDS011;57514;52.164;5.282;2023-06-24T13:26:53;9.70;;;4.40;;
70148;SDS011;57514;52.164;5.282;2023-06-24T13:29:22;8.38;;;4.63;;
70148;SDS011;57514;52.164;5.282;2023-06-24T13:31:49;10.00;;;4.43;;
70148;SDS011;57514;52.164;5.282;2023-06-24T13:34:18;9.93;;;4.85;;
70148;SDS011;57514;52.164;5.282;2023-06-24T13:36:45;10.88;;;4.30;;
70148;SDS011;57514;52.164;5.282;2023-06-24T13:39:14;9.45;;;5.10;;
70148;SDS011;57514;52.164;5.282;2023-06-24T13:41:44;9.95;;;5.22;;
70148;SDS011;57514;52.164;5.282;2023-06-24T13:44:12;10.75;;;5.57;;
70148;SDS011;57514;52.164;5.282;2023-06-24T13:46:39;8.65;;;4.50;;
70148;SDS011;57514;52.164;5.282;2023-06-24T13:49:06;9.93;;;4.97;;
70148;SDS011;57514;52.164;5.282;2023-06-24T13:51:34;9.40;;;4.45;;
70148;SDS011;57514;52.164;5.282;2023-06-24T13:54:14;7.65;;;3.92;;
70148;SDS011;57514;52.164;5.282;2023-06-24T13:56:41;8.30;;;4.53;;
70148;SDS011;57514;52.164;5.282;2023-06-24T13:59:09;8.60;;;5.00;;
70148;SDS011;57514;52.164;5.282;2023-06-24T14:01:37;10.30;;;4.90;;
70148;SDS011;57514;52.164;5.282;2023-06-24T14:04:12;9.50;;;4.30;;
70148;SDS011;57514;52.164;5.282;2023-06-24T14:06:40;8.68;;;4.13;;
70148;SDS011;57514;52.164;5.282;2023-06-24T14:09:09;11.07;;;5.00;;
70148;SDS011;57514;52.164;5.282;2023-06-24T14:11:42;9.35;;;4.50;;
70148;SDS011;57514;52.164;5.282;2023-06-24T14:14:17;9.40;;;4.03;;
70148;SDS011;57514;52.164;5.282;2023-06-24T14:16:44;8.18;;;4.40;;
70148;SDS011;57514;52.164;5.282;2023-06-24T14:19:14;8.57;;;4.20;;
70148;SDS011;57514;52.164;5.282;2023-06-24T14:21:42;8.13;;;4.28;;
70148;SDS011;57514;52.164;5.282;2023-06-24T14:24:09;12.57;;;4.90;;
70148;SDS011;57514;52.164;5.282;2023-06-24T14:26:42;8.75;;;4.43;;
70148;SDS011;57514;52.164;5.282;2023-06-24T14:29:11;9.40;;;4.95;;
70148;SDS011;57514;52.164;5.282;2023-06-24T14:34:33;9.52;;;5.07;;
70148;SDS011;57514;52.164;5.282;2023-06-24T14:37:15;11.55;;;4.57;;
70148;SDS011;57514;52.164;5.282;2023-06-24T14:39:42;9.63;;;4.60;;
70148;SDS011;57514;52.164;5.282;2023-06-24T14:42:12;9.25;;;4.78;;
70148;SDS011;57514;52.164;5.282;2023-06-24T14:44:40;10.23;;;4.60;;
70148;SDS011;57514;52.164;5.282;2023-06-24T14:47:07;11.02;;;5.18;;
70148;SDS011;57514;52.164;5.282;2023-06-24T15:11:34;10.50;;;5.18;;
70148;SDS011;57514;52.164;5.282;2023-06-24T15:14:38;10.57;;;4.60;;
70148;SDS011;57514;52.164;5.282;2023-06-24T15:17:05;8.77;;;4.57;;
70148;SDS011;57514;52.164;5.282;2023-06-24T15:19:33;10.57;;;4.35;;
70148;SDS011;57514;52.164;5.282;2023-06-24T15:22:00;9.07;;;4.72;;
70148;SDS011;57514;52.164;5.282;2023-06-24T15:24:27;8.88;;;4.88;;
70148;SDS011;57514;52.164;5.282;2023-06-24T15:26:56;10.60;;;4.80;;
70148;SDS011;57514;52.164;5.282;2023-06-24T15:29:26;8.60;;;4.47;;
70148;SDS011;57514;52.164;5.282;2023-06-24T15:31:53;9.93;;;4.78;;
70148;SDS011;57514;52.164;5.282;2023-06-24T15:34:21;9.95;;;4.80;;
70148;SDS011;57514;52.164;5.282;2023-06-24T16:00:35;9.73;;;4.50;;
70148;SDS011;57514;52.164;5.282;2023-06-24T16:03:02;10.95;;;5.32;;
70148;SDS011;57514;52.164;5.282;2023-06-24T16:05:32;9.88;;;5.63;;
70148;SDS011;57514;52.164;5.282;2023-06-24T16:08:07;11.50;;;5.90;;
70148;SDS011;57514;52.164;5.282;2023-06-24T16:10:36;9.93;;;5.20;;
70148;SDS011;57514;52.164;5.282;2023-06-24T16:13:04;13.18;;;5.93;;
70148;SDS011;57514;52.164;5.282;2023-06-24T16:18:24;12.23;;;5.75;;
70148;SDS011;57514;52.164;5.282;2023-06-24T16:20:55;11.82;;;5.78;;
70148;SDS011;57514;52.164;5.282;2023-06-24T16:23:23;13.05;;;5.55;;
70148;SDS011;57514;52.164;5.282;2023-06-24T16:26:31;11.93;;;6.50;;
70148;SDS011;57514;52.164;5.282;2023-06-24T16:29:13;10.82;;;5.90;;
70148;SDS011;57514;52.164;5.282;2023-06-24T16:31:40;11.80;;;5.28;;
70148;SDS011;57514;52.164;5.282;2023-06-24T16:34:08;11.43;;;5.80;;
70148;SDS011;57514;52.164;5.282;2023-06-24T16:36:48;11.27;;;5.78;;